Time;durP1;ratioP1;P1;durP2;ratioP2;P2;SDS_P1;SDS_P2;PMS_P1;PMS_P2;Temp;Humidity;BMP_temperature;BMP_pressure;BME280_temperature;BME280_humidity;BME280_pressure;Samples;Min_cycle;Max_cycle;Signal;HPM_P1;HPM_P2
2021/04/15 00:01:16;;;;;;;5.93;1.50;;;;;;;3.57;56.42;102080.19;5085057;28;20024;-61
2021/04/15 00:03:42;;;;;;;3.30;1.65;;;;;;;3.55;56.64;102077.56;5084991;28;20088;-61
2021/04/15 00:06:22;;;;;;;4.75;1.52;;;;;;;3.55;56.64;102077.56;5084856;28;20024;-61
2021/04/15 00:08:49;;;;;;;5.25;1.83;;;;;;;3.54;56.60;102080.03;5084836;28;20024;-61
2021/04/15 00:11:17;;;;;;;5.85;1.73;;;;;;;3.53;56.79;102083.44;5083892;28;20020;-62
2021/04/15 00:13:47;;;;;;;5.00;1.73;;;;;;;3.53;56.73;102083.44;5084727;28;20025;-61
2021/04/15 00:16:13;;;;;;;2.88;1.48;;;;;;;3.52;56.74;102074.84;5084727;28;20073;-61
2021/04/15 00:18:39;;;;;;;5.63;1.90;;;;;;;3.51;56.85;102079.91;5084722;28;20081;-61
2021/04/15 00:21:06;;;;;;;3.92;2.30;;;;;;;3.53;56.64;102075.72;5084447;28;20063;-61
2021/04/15 00:23:32;;;;;;;3.22;1.45;;;;;;;3.51;56.63;102075.66;5084184;28;20016;-61
2021/04/15 00:25:59;;;;;;;3.47;1.70;;;;;;;3.51;56.64;102077.34;5084357;28;20035;-61
2021/04/15 00:28:24;;;;;;;2.90;1.60;;;;;;;3.51;56.59;102085.03;5084438;28;20024;-61
2021/04/15 00:30:50;;;;;;;3.53;1.70;;;;;;;3.47;56.77;102076.28;5084404;28;20027;-61
2021/04/15 00:33:17;;;;;;;3.58;1.60;;;;;;;3.48;56.77;102080.66;5084204;28;20047;-61
2021/04/15 00:35:45;;;;;;;4.63;1.80;;;;;;;3.50;56.66;102080.72;5084050;28;20021;-61
2021/04/15 00:38:13;;;;;;;3.15;1.50;;;;;;;3.51;56.76;102077.34;5084063;28;20017;-61
2021/04/15 00:40:40;;;;;;;4.30;1.70;;;;;;;3.51;56.72;102082.47;5084070;28;20114;-60
2021/04/15 00:43:06;;;;;;;3.47;1.75;;;;;;;3.51;56.71;102079.91;5083746;28;20050;-60
2021/04/15 00:45:38;;;;;;;2.90;1.80;;;;;;;3.50;56.64;102083.28;5084017;28;20029;-60
2021/04/15 00:48:22;;;;;;;6.30;2.20;;;;;;;3.53;56.70;102083.44;5083816;28;20050;-60
2021/04/15 00:50:57;;;;;;;5.65;1.98;;;;;;;3.53;56.38;102084.28;5084011;28;20061;-62
2021/04/15 00:53:26;;;;;;;8.18;2.67;;;;;;;3.53;56.27;102088.56;5083770;28;20036;-60
2021/04/15 00:55:53;;;;;;;5.03;1.98;;;;;;;3.47;56.35;102078.88;5083752;28;20031;-61
2021/04/15 00:58:18;;;;;;;3.58;1.85;;;;;;;3.51;56.33;102088.50;5083645;28;20111;-61
2021/04/15 01:00:43;;;;;;;7.57;1.98;;;;;;;3.52;56.48;102086.78;5083894;28;20021;-61
2021/04/15 01:03:10;;;;;;;4.03;1.70;;;;;;;3.52;56.14;102081.66;5083473;28;20114;-61
2021/04/15 01:05:39;;;;;;;3.60;1.67;;;;;;;3.53;56.20;102080.88;5083500;28;20020;-61
2021/04/15 01:08:05;;;;;;;2.83;1.70;;;;;;;3.52;56.21;102086.78;5083388;28;20032;-61
2021/04/15 01:10:36;;;;;;;5.05;1.92;;;;;;;3.54;56.04;102080.03;5083641;28;20048;-61
2021/04/15 01:13:20;;;;;;;2.60;1.60;;;;;;;3.54;55.76;102083.50;5083494;28;20500;-61
2021/04/15 01:16:06;;;;;;;4.30;2.13;;;;;;;3.53;55.88;102086.00;5083654;28;20028;-61
2021/04/15 01:18:41;;;;;;;7.43;1.75;;;;;;;3.53;55.66;102086.00;5083453;28;20359;-61
2021/04/15 01:21:09;;;;;;;6.80;1.90;;;;;;;3.51;55.74;102085.94;5083490;28;20284;-61
2021/04/15 01:23:53;;;;;;;4.05;1.73;;;;;;;3.48;55.86;102088.34;5082912;28;20048;-61
2021/04/15 01:26:56;;;;;;;3.40;1.27;;;;;;;3.44;55.97;102089.88;5082097;28;20024;-61
2021/04/15 01:29:46;;;;;;;2.47;1.52;;;;;;;3.43;55.95;102093.25;5081888;28;20036;-61
2021/04/15 01:32:21;;;;;;;2.15;1.35;;;;;;;3.41;55.63;102097.44;5083236;28;20032;-61
2021/04/15 01:35:01;;;;;;;4.72;1.77;;;;;;;3.37;55.74;102089.50;5083202;28;20028;-61
2021/04/15 01:37:35;;;;;;;3.53;1.25;;;;;;;3.33;55.80;102091.03;5083422;28;20368;-61
2021/04/15 01:40:06;;;;;;;2.40;1.40;;;;;;;3.30;55.76;102089.22;5083287;28;20052;-61
2021/04/15 01:42:41;;;;;;;2.65;1.30;;;;;;;3.29;55.66;102100.28;5083229;28;20112;-61
2021/04/15 01:45:11;;;;;;;1.95;1.25;;;;;;;3.28;55.76;102097.63;5082778;28;20100;-61
2021/04/15 01:47:45;;;;;;;2.75;1.20;;;;;;;3.26;55.68;102096.69;5082817;28;20096;-61
2021/04/15 01:50:18;;;;;;;3.53;1.70;;;;;;;3.22;55.77;102104.25;5083523;28;20063;-61
2021/04/15 01:52:47;;;;;;;3.53;1.50;;;;;;;3.18;55.81;102102.31;5083159;28;20028;-60
2021/04/15 01:55:21;;;;;;;3.00;1.50;;;;;;;3.13;55.76;102103.75;5082804;28;20028;-61
2021/04/15 01:58:01;;;;;;;2.72;1.35;;;;;;;3.10;56.10;102101.03;5083008;28;20025;-61
2021/04/15 02:00:30;;;;;;;2.58;1.23;;;;;;;3.11;56.01;102102.81;5083017;28;20052;-61
2021/04/15 02:03:01;;;;;;;3.33;1.38;;;;;;;3.12;56.17;102102.00;5082999;28;20025;-61
2021/04/15 02:05:31;;;;;;;2.25;1.17;;;;;;;3.13;55.98;102105.47;5082930;28;20024;-61
2021/04/15 02:08:03;;;;;;;2.40;1.50;;;;;;;3.15;56.05;102104.72;5082899;28;20025;-61
2021/04/15 02:10:28;;;;;;;2.80;1.15;;;;;;;3.17;55.94;102100.56;5083044;28;20024;-61
2021/04/15 02:12:57;;;;;;;1.55;0.90;;;;;;;3.21;55.68;102101.59;5082850;28;20117;-61
2021/04/15 02:15:30;;;;;;;1.48;0.98;;;;;;;3.25;55.60;102110.31;5082680;28;20029;-61
2021/04/15 02:18:06;;;;;;;2.33;0.90;;;;;;;3.28;55.57;102107.91;5083047;28;20020;-61
2021/04/15 02:20:32;;;;;;;2.15;1.13;;;;;;;3.27;55.58;102104.47;5083038;28;20496;-61
2021/04/15 02:23:06;;;;;;;4.93;1.00;;;;;;;3.30;55.39;102106.28;5082992;28;20020;-61
2021/04/15 02:26:07;;;;;;;2.63;1.15;;;;;;;3.34;55.35;102108.19;5083044;28;20031;-61
2021/04/15 02:28:35;;;;;;;2.08;0.98;;;;;;;3.37;55.34;102104.91;5059714;28;20075;-61
2021/04/15 02:31:09;;;;;;;2.17;1.25;;;;;;;3.37;55.25;102103.22;5060177;28;20203;-61
2021/04/15 02:33:34;;;;;;;1.65;0.90;;;;;;;3.39;55.20;102110.97;5059893;28;20025;-61
2021/04/15 02:36:04;;;;;;;2.08;0.88;;;;;;;3.40;55.26;102108.53;5063457;28;20402;-61
2021/04/15 02:38:51;;;;;;;3.80;1.10;;;;;;;3.41;55.19;102114.50;5063306;28;20111;-61
2021/04/15 02:41:21;;;;;;;1.67;1.00;;;;;;;3.31;55.36;102092.63;5063635;28;20033;-61
2021/04/15 02:43:56;;;;;;;3.45;1.10;;;;;;;3.40;55.29;102108.53;5063413;28;20033;-60
2021/04/15 02:46:31;;;;;;;2.95;1.42;;;;;;;3.41;55.44;102114.50;5063383;28;20021;-60
2021/04/15 02:49:01;;;;;;;4.93;1.35;;;;;;;3.41;55.45;102115.41;5063028;28;20068;-60
2021/04/15 02:51:33;;;;;;;4.13;1.65;;;;;;;3.38;55.61;102120.41;5063135;28;20029;-60
2021/04/15 02:54:04;;;;;;;4.60;2.72;;;;;;;3.21;56.23;102107.59;5062953;28;20437;-60
2021/04/15 02:56:38;;;;;;;8.48;2.28;;;;;;;3.24;56.56;102121.41;5063260;28;20029;-60
2021/04/15 02:59:14;;;;;;;3.30;1.80;;;;;;;3.14;56.67;102131.22;5063199;28;20063;-60
2021/04/15 03:01:44;;;;;;;5.60;1.88;;;;;;;3.08;57.06;102130.91;5062794;28;20505;-60
2021/04/15 03:04:19;;;;;;;2.30;1.10;;;;;;;3.02;57.25;102135.72;5064863;28;20041;-60
2021/04/15 03:06:47;;;;;;;3.95;1.90;;;;;;;2.95;57.42;102134.53;5085850;28;20058;-60
2021/04/15 03:09:14;;;;;;;2.60;1.50;;;;;;;2.91;57.72;102140.28;5085337;28;20018;-60
2021/04/15 03:12:09;;;;;;;6.15;1.60;;;;;;;2.85;57.76;102140.84;5085438;28;20024;-60
2021/04/15 03:14:48;;;;;;;3.20;1.60;;;;;;;2.72;58.03;102140.22;5085373;28;20086;-60
2021/04/15 03:17:14;;;;;;;3.72;1.38;;;;;;;2.65;58.06;102138.13;5084419;28;20031;-61
2021/04/15 03:19:44;;;;;;;3.20;1.58;;;;;;;2.62;58.43;102131.97;5085471;28;20016;-60
2021/04/15 03:22:21;;;;;;;2.45;1.30;;;;;;;2.62;58.50;102140.53;5085472;28;20052;-60
2021/04/15 03:24:49;;;;;;;3.25;1.60;;;;;;;2.61;58.43;102136.22;5085258;28;20032;-60
2021/04/15 03:27:14;;;;;;;3.58;1.08;;;;;;;2.59;58.60;102133.56;5085791;28;20028;-60
2021/04/15 03:29:53;;;;;;;2.08;1.30;;;;;;;2.55;58.70;102138.47;5085818;28;20028;-61
2021/04/15 03:32:30;;;;;;;3.35;1.30;;;;;;;2.54;58.72;102139.28;5085917;28;20461;-60
2021/04/15 03:35:13;;;;;;;2.17;1.42;;;;;;;2.54;58.75;102146.97;5085635;28;20340;-60
2021/04/15 03:37:54;;;;;;;6.93;1.27;;;;;;;2.47;58.65;102138.94;5085683;28;20024;-61
2021/04/15 03:40:23;;;;;;;2.28;1.13;;;;;;;2.44;58.73;102138.78;5085313;28;20021;-61
2021/04/15 03:43:05;;;;;;;4.28;1.40;;;;;;;2.48;58.70;102142.38;5085774;28;20016;-60
2021/04/15 03:45:38;;;;;;;4.30;1.95;;;;;;;2.48;58.58;102138.13;5085336;28;20027;-61
2021/04/15 03:48:08;;;;;;;2.35;1.25;;;;;;;2.43;58.49;102144.69;5085362;28;20049;-60
2021/04/15 03:50:48;;;;;;;3.42;1.10;;;;;;;2.47;58.47;102151.78;5085578;28;20028;-61
2021/04/15 03:53:19;;;;;;;2.20;1.10;;;;;;;2.52;58.29;102148.56;5085377;28;20465;-60
2021/04/15 03:55:52;;;;;;;2.88;1.40;;;;;;;2.55;58.19;102148.72;5085537;28;20023;-60
2021/04/15 03:58:26;;;;;;;4.88;2.28;;;;;;;2.58;58.02;102151.44;5085352;28;20032;-61
2021/04/15 04:01:00;;;;;;;1.88;1.20;;;;;;;2.58;58.00;102149.78;5085419;28;20024;-61
2021/04/15 04:03:28;;;;;;;6.55;1.42;;;;;;;2.56;58.09;102158.16;5085045;28;20020;-60
2021/04/15 04:06:03;;;;;;;1.40;1.10;;;;;;;2.56;58.15;102153.03;5085024;28;20031;-61
2021/04/15 04:08:48;;;;;;;2.47;1.13;;;;;;;2.53;58.21;102160.56;5084723;28;20432;-62
2021/04/15 04:11:19;;;;;;;4.53;1.45;;;;;;;2.49;58.23;102159.53;5085172;28;20030;-62
2021/04/15 04:13:54;;;;;;;2.00;1.23;;;;;;;2.50;58.06;102157.84;5085047;28;20052;-62
2021/04/15 04:16:19;;;;;;;3.92;1.23;;;;;;;2.51;58.02;102169.88;5084842;28;20029;-62
2021/04/15 04:19:05;;;;;;;4.30;1.73;;;;;;;2.50;58.23;102160.41;5084777;28;20032;-62
2021/04/15 04:21:31;;;;;;;2.00;1.00;;;;;;;2.48;58.06;102161.22;5084781;28;20031;-62
2021/04/15 04:24:15;;;;;;;2.13;1.08;;;;;;;2.52;58.17;102171.63;5084510;28;20028;-62
2021/04/15 04:26:47;;;;;;;4.60;1.33;;;;;;;2.53;58.39;102163.13;5084597;28;20025;-62
2021/04/15 04:29:22;;;;;;;4.28;1.50;;;;;;;2.76;58.59;102168.59;5083412;28;20029;-63
2021/04/15 04:31:51;;;;;;;3.00;1.70;;;;;;;3.08;58.84;102172.81;5084629;28;20032;-63
2021/04/15 04:34:18;;;;;;;2.20;1.23;;;;;;;3.44;58.68;102166.91;5084203;28;20088;-62
2021/04/15 04:36:46;;;;;;;2.50;1.00;;;;;;;3.78;58.42;102165.13;5083199;28;20024;-63
2021/04/15 04:39:14;;;;;;;3.13;1.33;;;;;;;4.07;57.63;102163.03;5084208;28;20100;-63
2021/04/15 04:41:50;;;;;;;3.50;1.05;;;;;;;4.44;57.55;102169.00;5084244;28;20035;-63
2021/04/15 04:44:28;;;;;;;6.72;1.33;;;;;;;4.86;57.62;102174.25;5084316;28;20099;-63
2021/04/15 04:47:21;;;;;;;6.78;1.50;;;;;;;5.53;56.71;102166.72;5084073;28;20042;-63
2021/04/15 04:49:56;;;;;;;2.78;1.40;;;;;;;6.14;55.84;102158.81;5084033;28;20048;-62
2021/04/15 04:52:28;;;;;;;6.47;1.38;;;;;;;6.67;54.88;102172.00;5082905;28;20024;-62
2021/04/15 04:54:54;;;;;;;5.95;1.40;;;;;;;7.08;54.10;102175.97;5084048;28;20043;-62
2021/04/15 04:57:32;;;;;;;2.50;1.25;;;;;;;7.55;53.46;102173.25;5083605;28;20020;-62
2021/04/15 05:00:12;;;;;;;3.45;1.33;;;;;;;8.06;52.40;102180.84;5083947;28;20024;-62
2021/04/15 05:02:39;;;;;;;2.03;1.20;;;;;;;8.53;50.96;102169.28;5083694;28;20109;-62
2021/04/15 05:05:14;;;;;;;1.58;1.23;;;;;;;8.87;49.08;102177.13;5083907;28;20024;-63
2021/04/15 05:07:42;;;;;;;4.85;1.40;;;;;;;9.16;48.70;102177.91;5084282;28;20035;-63
2021/04/15 05:10:13;;;;;;;5.05;1.40;;;;;;;9.51;47.72;102182.25;5083772;28;20032;-63
2021/04/15 05:12:38;;;;;;;7.22;1.33;;;;;;;9.94;47.28;102176.31;5083937;28;20021;-62
2021/04/15 05:15:05;;;;;;;4.93;1.30;;;;;;;10.27;46.72;102172.69;5083872;28;20028;-63
2021/04/15 05:17:36;;;;;;;4.20;1.45;;;;;;;10.77;45.88;102178.06;5084017;28;20016;-63
2021/04/15 05:20:14;;;;;;;8.90;1.70;;;;;;;11.28;45.31;102189.38;5084025;28;20051;-62
2021/04/15 05:23:06;;;;;;;4.22;1.35;;;;;;;11.55;43.46;102174.22;5082468;28;20111;-63
2021/04/15 05:25:40;;;;;;;5.43;1.23;;;;;;;11.99;42.59;102183.56;5083175;28;20040;-61
2021/04/15 05:28:14;;;;;;;2.45;1.35;;;;;;;12.07;40.92;102193.19;5083997;28;20020;-62
2021/04/15 05:30:44;;;;;;;6.57;1.48;;;;;;;12.16;41.27;102195.09;5082465;28;20480;-65
2021/04/15 05:33:15;;;;;;;5.70;1.58;;;;;;;12.15;39.91;102196.81;5083966;28;20047;-62
2021/04/15 05:35:50;;;;;;;6.43;1.58;;;;;;;12.08;39.61;102195.84;5083519;28;20054;-63
2021/04/15 05:38:16;;;;;;;3.78;1.40;;;;;;;11.83;39.10;102198.06;5083532;28;20020;-63
2021/04/15 05:40:42;;;;;;;3.97;1.60;;;;;;;11.44;39.47;102209.59;5083588;28;20082;-61
2021/04/15 05:43:07;;;;;;;2.17;1.35;;;;;;;11.13;39.97;102210.78;5083452;28;20036;-63
2021/04/15 05:45:36;;;;;;;8.98;1.50;;;;;;;11.08;40.27;102217.63;5083225;28;20031;-62
2021/04/15 05:48:05;;;;;;;4.22;1.40;;;;;;;11.09;39.33;102216.78;5083314;28;20052;-63
2021/04/15 05:50:48;;;;;;;7.55;2.05;;;;;;;10.78;39.71;102217.06;5083404;28;20017;-63
2021/04/15 05:53:28;;;;;;;8.40;1.70;;;;;;;10.68;39.89;102220.31;5083301;28;20027;-62
2021/04/15 05:56:04;;;;;;;4.38;1.40;;;;;;;10.71;39.98;102222.09;5083472;28;20040;-62
2021/04/15 05:58:34;;;;;;;3.85;1.60;;;;;;;10.50;39.65;102215.59;5083577;28;20289;-61
2021/04/15 06:01:04;;;;;;;4.72;1.20;;;;;;;10.26;39.69;102219.41;5083669;28;20115;-63
2021/04/15 06:04:01;;;;;;;5.05;1.38;;;;;;;10.18;40.47;102216.63;5083157;28;20134;-62
2021/04/15 06:06:32;;;;;;;6.53;2.00;;;;;;;10.46;40.71;102221.56;5083511;28;20039;-63
2021/04/15 06:09:00;;;;;;;5.53;1.38;;;;;;;10.83;39.82;102206.75;5083569;28;20088;-63
2021/04/15 06:11:59;;;;;;;6.20;1.52;;;;;;;11.09;39.09;102226.28;5086039;28;20032;-63
2021/04/15 06:15:02;;;;;;;1.60;0.95;;;;;;;11.23;38.18;102222.22;5087276;28;20078;-67
2021/04/15 06:17:43;;;;;;;3.22;1.70;;;;;;;11.22;38.97;102227.41;5087404;28;20058;-63
2021/04/15 06:20:23;;;;;;;3.67;1.33;;;;;;;11.47;39.23;102227.84;5086659;28;20488;-61
2021/04/15 06:22:53;;;;;;;3.33;1.23;;;;;;;11.88;37.97;102219.84;5086623;28;20029;-60
2021/04/15 06:25:31;;;;;;;5.07;1.40;;;;;;;11.88;37.74;102225.06;5086677;28;20038;-60
2021/04/15 06:28:02;;;;;;;2.88;1.38;;;;;;;12.08;38.17;102232.28;5086683;28;20194;-62
2021/04/15 06:30:47;;;;;;;4.97;1.60;;;;;;;12.37;37.74;102229.22;5086810;28;20028;-64
2021/04/15 06:33:18;;;;;;;5.72;2.33;;;;;;;12.75;36.99;102229.69;5086349;28;20021;-64
2021/04/15 06:35:45;;;;;;;6.50;1.60;;;;;;;12.89;36.49;102228.13;5086509;28;20403;-64
2021/04/15 06:38:17;;;;;;;6.25;1.33;;;;;;;12.91;35.62;102224.66;5086719;28;20048;-64
2021/04/15 06:40:52;;;;;;;4.55;1.30;;;;;;;12.70;35.53;102234.00;5086611;28;20016;-63
2021/04/15 06:43:41;;;;;;;5.05;1.52;;;;;;;12.68;35.71;102227.88;5086726;28;20040;-63
2021/04/15 06:46:16;;;;;;;3.88;1.40;;;;;;;12.66;35.24;102235.66;5086909;28;20024;-65
2021/04/15 06:48:59;;;;;;;2.75;1.10;;;;;;;12.03;35.81;102236.53;5086310;28;20044;-65
2021/04/15 06:51:43;;;;;;;3.80;1.52;;;;;;;11.51;36.00;102240.94;5086403;28;20035;-63
2021/04/15 06:54:12;;;;;;;2.10;1.25;;;;;;;11.12;36.32;102237.63;5086184;28;20037;-63
2021/04/15 06:57:01;;;;;;;3.65;1.50;;;;;;;10.85;37.07;102238.84;5086486;28;20035;-63
2021/04/15 06:59:52;;;;;;;4.07;1.10;;;;;;;10.57;37.27;102237.41;5086358;28;20025;-62
2021/04/15 07:02:52;;;;;;;3.92;1.00;;;;;;;10.62;37.80;102239.25;5086322;28;20108;-63
2021/04/15 07:05:23;;;;;;;4.38;1.10;;;;;;;10.87;37.74;102242.34;5085914;28;20028;-64
2021/04/15 07:08:04;;;;;;;1.48;1.05;;;;;;;11.30;37.34;102240.53;5086154;28;20146;-64
2021/04/15 07:10:57;;;;;;;1.30;0.80;;;;;;;11.53;36.63;102244.41;5085961;28;20051;-64
2021/04/15 07:13:41;;;;;;;2.63;1.00;;;;;;;11.78;36.37;102239.63;5085852;28;20016;-64
2021/04/15 07:16:25;;;;;;;2.72;1.38;;;;;;;12.22;36.61;102242.06;5085874;28;20037;-64
2021/04/15 07:19:19;;;;;;;3.05;1.23;;;;;;;12.70;35.42;102242.66;5086077;28;20065;-64
2021/04/15 07:21:57;;;;;;;4.35;1.13;;;;;;;12.61;34.22;102243.44;5085281;28;20026;-63
2021/04/15 07:24:48;;;;;;;1.08;0.88;;;;;;;12.44;34.44;102240.63;5085759;28;20389;-63
2021/04/15 07:27:41;;;;;;;2.78;1.25;;;;;;;12.46;34.38;102244.09;5085574;28;20025;-62
2021/04/15 07:30:21;;;;;;;2.83;1.08;;;;;;;12.64;34.51;102238.25;5085433;28;20108;-62
2021/04/15 07:33:08;;;;;;;4.53;1.20;;;;;;;12.90;34.72;102242.03;5085760;28;20047;-63
2021/04/15 07:35:55;;;;;;;3.78;0.90;;;;;;;13.38;33.29;102237.31;5085531;28;20549;-62
2021/04/15 07:38:35;;;;;;;4.93;0.95;;;;;;;13.90;33.80;102244.72;5085270;28;20040;-63
2021/04/15 07:41:19;;;;;;;6.75;1.13;;;;;;;14.53;32.74;102244.22;5085815;28;20405;-63
2021/04/15 07:44:12;;;;;;;3.47;0.70;;;;;;;14.59;30.99;102244.25;5085323;28;20017;-64
2021/04/15 07:47:11;;;;;;;3.08;0.95;;;;;;;14.03;31.05;102251.75;5085514;28;20084;-64
2021/04/15 07:49:55;;;;;;;4.57;1.10;;;;;;;13.82;30.94;102247.25;5085240;28;20032;-63
2021/04/15 07:52:39;;;;;;;5.32;1.10;;;;;;;13.63;31.86;102254.94;5085271;28;20021;-62
2021/04/15 07:55:04;;;;;;;2.40;1.00;;;;;;;13.70;32.04;102264.59;5085080;28;20025;-62
2021/04/15 07:57:54;;;;;;;2.95;0.75;;;;;;;14.24;32.24;102260.59;5085001;28;20348;-62
2021/04/15 08:00:41;;;;;;;2.85;1.40;;;;;;;14.23;30.83;102258.88;5085012;28;20084;-62
2021/04/15 08:03:25;;;;;;;4.00;0.90;;;;;;;14.44;30.81;102262.47;5084902;28;20032;-62
2021/04/15 08:06:05;;;;;;;2.20;0.75;;;;;;;14.31;29.84;102259.78;5084813;28;20024;-62
2021/04/15 08:09:02;;;;;;;2.38;1.10;;;;;;;14.16;30.07;102262.28;5083366;28;20024;-62
2021/04/15 08:11:43;;;;;;;2.60;1.05;;;;;;;14.38;29.92;102264.19;5085011;28;20437;-62
2021/04/15 08:14:32;;;;;;;1.48;0.80;;;;;;;14.56;29.02;102267.75;5084903;28;20093;-63
2021/04/15 08:17:31;;;;;;;1.55;0.90;;;;;;;14.52;28.85;102265.13;5080442;28;20040;-62
2021/04/15 08:20:15;;;;;;;1.10;0.82;;;;;;;14.27;28.96;102270.19;5084594;28;20039;-62
2021/04/15 08:23:01;;;;;;;1.65;0.75;;;;;;;13.88;28.37;102269.06;5084864;28;20027;-62
2021/04/15 08:25:51;;;;;;;4.03;1.10;;;;;;;13.91;28.81;102268.22;5083835;28;20024;-61
2021/04/15 08:28:38;;;;;;;1.95;0.77;;;;;;;14.07;28.23;102265.72;5084555;28;20068;-63
2021/04/15 08:31:12;;;;;;;1.48;0.75;;;;;;;14.08;28.19;102268.34;5084349;28;20083;-62
2021/04/15 08:34:00;;;;;;;2.55;0.88;;;;;;;14.05;27.99;102260.50;5083676;28;20028;-62
2021/04/15 08:37:01;;;;;;;1.70;0.70;;;;;;;14.59;27.86;102266.88;5084271;28;20055;-62
2021/04/15 08:40:00;;;;;;;3.53;0.88;;;;;;;15.19;27.02;102271.47;5061441;28;20040;-62
2021/04/15 08:42:50;;;;;;;3.00;0.90;;;;;;;15.22;26.16;102270.63;5061711;28;20029;-62
2021/04/15 08:45:56;;;;;;;5.47;0.95;;;;;;;14.87;26.11;102273.13;5061487;28;20051;-62
2021/04/15 08:48:37;;;;;;;1.35;0.90;;;;;;;14.38;26.00;102264.19;5021499;28;20392;-63
2021/04/15 08:51:09;;;;;;;0.98;0.60;;;;;;;14.04;26.33;102269.16;5021907;28;20065;-62
2021/04/15 08:54:02;;;;;;;0.82;0.60;;;;;;;13.95;26.62;102264.78;5021398;28;20034;-62
2021/04/15 08:56:31;;;;;;;;;;;;;;;13.88;26.90;102271.69;5022117;28;20129;-62
2021/04/15 08:59:22;;;;;;;3.88;0.70;;;;;;;13.96;26.86;102260.44;5021437;28;19952;-62
2021/04/15 09:02:12;;;;;;;2.03;0.60;;;;;;;14.23;26.05;102269.31;5021464;28;20648;-62
2021/04/15 09:04:52;;;;;;;1.42;0.85;;;;;;;13.96;25.99;102276.09;5021555;28;20033;-62
2021/04/15 09:07:25;;;;;;;1.42;0.80;;;;;;;13.98;25.92;102269.13;5021279;28;20125;-63
2021/04/15 09:10:08;;;;;;;1.40;0.70;;;;;;;14.26;24.96;102264.09;5021141;28;20045;-65
2021/04/15 09:12:37;;;;;;;2.47;0.82;;;;;;;14.04;24.78;102261.34;5021112;28;20045;-65
2021/04/15 09:15:35;;;;;;;0.73;0.63;;;;;;;14.04;24.81;102263.09;5022883;28;20033;-64
2021/04/15 09:18:09;;;;;;;2.67;0.60;;;;;;;14.11;24.67;102249.19;5042279;28;20081;-65
2021/04/15 09:20:40;;;;;;;2.35;0.60;;;;;;;14.19;24.71;102259.69;5084060;28;20025;-65
2021/04/15 09:23:15;;;;;;;3.92;0.98;;;;;;;14.61;25.02;102252.97;5083637;28;20388;-66
2021/04/15 09:25:43;;;;;;;1.05;0.70;;;;;;;15.33;24.45;102255.81;5083562;28;20032;-64
2021/04/15 09:28:30;;;;;;;3.60;0.70;;;;;;;16.20;23.97;102246.16;5083600;28;20063;-64
2021/04/15 09:31:22;;;;;;;2.95;1.15;;;;;;;17.24;22.81;102242.22;5083670;28;20028;-64
2021/04/15 09:34:33;;;;;;;1.40;0.77;;;;;;;17.30;21.79;102247.44;5083551;28;20052;-64
2021/04/15 09:37:13;;;;;;;1.63;0.70;;;;;;;16.92;21.05;102259.00;5074724;28;20025;-65
2021/04/15 09:39:56;;;;;;;4.47;1.27;;;;;;;16.21;21.12;102247.94;5082784;28;20020;-64
2021/04/15 09:43:00;;;;;;;2.22;0.95;;;;;;;15.40;21.53;102271.53;5081071;28;20073;-64
2021/04/15 09:46:06;;;;;;;3.33;0.73;;;;;;;14.95;22.48;102239.16;5081194;28;20016;-64
2021/04/15 09:48:47;;;;;;;1.55;0.98;;;;;;;15.04;22.51;102250.50;5081334;28;20036;-64
2021/04/15 09:51:30;;;;;;;2.85;0.65;;;;;;;15.17;21.95;102243.56;5081974;28;20029;-64
2021/04/15 09:54:08;;;;;;;1.92;0.80;;;;;;;15.16;21.62;102236.59;5081611;28;20032;-64
2021/04/15 09:57:01;;;;;;;2.38;0.93;;;;;;;15.15;21.82;102240.94;5081409;28;20025;-64
2021/04/15 09:59:47;;;;;;;1.48;0.80;;;;;;;15.11;22.15;102245.28;5083440;28;20083;-64
2021/04/15 10:02:42;;;;;;;2.17;0.80;;;;;;;15.56;22.05;102249.72;5083596;28;20431;-65
2021/04/15 10:05:18;;;;;;;1.42;0.90;;;;;;;16.30;21.79;102232.19;5079033;28;20032;-66
2021/04/15 10:07:55;;;;;;;1.20;0.85;;;;;;;16.26;21.40;102225.22;5082836;28;20063;-64
2021/04/15 10:11:03;;;;;;;2.70;0.75;;;;;;;16.54;21.59;102227.72;5082516;28;20037;-66
2021/04/15 10:13:43;;;;;;;1.92;0.93;;;;;;;16.83;19.71;102229.34;5059980;28;20036;-63
2021/04/15 10:16:18;;;;;;;1.40;0.98;;;;;;;16.26;19.85;102222.59;5060333;28;20033;-63
2021/04/15 10:19:20;;;;;;;0.60;0.40;;;;;;;15.74;20.13;102234.88;5060434;28;20480;-64
2021/04/15 10:21:58;;;;;;;1.48;0.80;;;;;;;14.92;20.80;102222.59;5060430;28;20040;-63
2021/04/15 10:24:39;;;;;;;1.90;0.70;;;;;;;14.89;20.98;102227.81;5060150;28;20123;-62
2021/04/15 10:27:35;;;;;;;1.20;0.70;;;;;;;15.14;21.54;102228.75;5060636;28;20100;-63
2021/04/15 10:30:37;;;;;;;1.92;0.60;;;;;;;15.27;20.92;102220.91;5059576;28;20037;-63
2021/04/15 10:33:21;;;;;;;5.25;0.90;;;;;;;15.24;21.76;102209.56;5059902;28;20036;-63
2021/04/15 10:36:05;;;;;;;1.42;0.73;;;;;;;15.00;20.86;102228.69;5060076;28;20029;-62
2021/04/15 10:38:54;;;;;;;2.33;0.70;;;;;;;15.00;21.15;102213.00;5059778;28;20029;-63
2021/04/15 10:41:38;;;;;;;1.48;0.60;;;;;;;15.55;20.39;102219.19;5059871;28;20052;-63
2021/04/15 10:44:30;;;;;;;2.88;0.93;;;;;;;15.41;20.47;102218.31;5059772;28;20064;-62
2021/04/15 10:47:17;;;;;;;1.03;0.70;;;;;;;15.51;19.16;102212.19;5060239;28;20028;-62
2021/04/15 10:50:09;;;;;;;1.95;0.60;;;;;;;15.09;19.42;102215.66;5063672;28;20350;-62
2021/04/15 10:52:52;;;;;;;1.60;0.68;;;;;;;14.58;19.85;102205.91;5083082;28;20021;-63
2021/04/15 10:55:37;;;;;;;1.13;0.65;;;;;;;14.83;19.96;102213.84;5083121;28;20097;-63
2021/04/15 10:58:30;;;;;;;1.05;0.60;;;;;;;15.10;18.93;102217.41;5085928;28;20519;-63
2021/04/15 11:00:56;;;;;;;2.40;0.60;;;;;;;14.78;20.00;102212.94;5086373;28;20028;-63
2021/04/15 11:03:32;;;;;;;1.02;0.60;;;;;;;15.09;19.21;102214.78;5086111;28;20021;-61
2021/04/15 11:05:58;;;;;;;3.97;0.70;;;;;;;14.78;19.55;102204.19;5085955;28;20501;-61
2021/04/15 11:08:24;;;;;;;2.28;0.70;;;;;;;15.10;20.28;102201.69;5085797;28;20017;-61
2021/04/15 11:10:50;;;;;;;1.88;0.50;;;;;;;15.61;19.33;102213.06;5085845;28;20029;-62
2021/04/15 11:13:21;;;;;;;1.25;0.60;;;;;;;15.51;19.56;102193.00;5086015;28;20040;-62
2021/04/15 11:15:56;;;;;;;1.57;0.90;;;;;;;15.60;20.02;102190.38;5085930;28;20051;-62
2021/04/15 11:18:36;;;;;;;2.20;0.60;;;;;;;15.69;19.67;102187.75;5086014;28;20257;-63
2021/04/15 11:21:39;;;;;;;1.05;0.60;;;;;;;15.51;19.88;102186.00;5086012;28;20046;-62
2021/04/15 11:24:29;;;;;;;1.38;0.73;;;;;;;15.26;19.56;102200.84;5062956;28;20105;-64
2021/04/15 11:27:02;;;;;;;1.38;0.60;;;;;;;14.02;20.68;102183.84;5063100;28;20029;-62
2021/04/15 11:29:44;;;;;;;2.20;0.70;;;;;;;13.03;21.26;102198.72;5062690;28;20028;-62
2021/04/15 11:32:30;;;;;;;1.00;0.60;;;;;;;12.27;22.52;102180.47;5046004;28;20045;-62
2021/04/15 11:35:19;;;;;;;1.27;0.80;;;;;;;11.96;23.12;102204.34;5062661;28;20028;-63
2021/04/15 11:37:47;;;;;;;2.10;0.70;;;;;;;11.48;23.48;102181.06;5062754;28;20036;-63
2021/04/15 11:40:15;;;;;;;1.75;0.80;;;;;;;11.13;24.08;102197.78;5062499;28;20024;-63
2021/04/15 11:42:42;;;;;;;2.17;0.77;;;;;;;11.03;24.85;102182.88;5062961;28;20497;-63
2021/04/15 11:45:10;;;;;;;0.93;0.73;;;;;;;11.25;24.92;102183.25;5062495;28;20043;-63
2021/04/15 11:47:35;;;;;;;0.90;0.60;;;;;;;11.43;24.71;102184.41;5062315;28;20045;-62
2021/04/15 11:50:07;;;;;;;2.75;1.00;;;;;;;11.23;25.17;102183.22;5062282;28;20051;-62
2021/04/15 11:52:35;;;;;;;1.63;0.77;;;;;;;11.34;25.33;102186.00;5062533;28;20112;-62
2021/04/15 11:55:06;;;;;;;2.10;0.90;;;;;;;11.25;25.77;102185.84;5062015;28;20033;-62
2021/04/15 11:57:38;;;;;;;0.77;0.57;;;;;;;11.32;25.66;102187.72;5068887;28;20047;-62
2021/04/15 12:00:04;;;;;;;1.15;0.80;;;;;;;11.33;25.70;102184.25;5085142;28;20265;-62
2021/04/15 12:02:37;;;;;;;1.35;0.80;;;;;;;11.37;25.58;102180.84;5084930;28;20088;-63
2021/04/15 12:05:20;;;;;;;1.17;0.70;;;;;;;11.24;25.69;102187.59;5084882;28;20021;-65
2021/04/15 12:07:53;;;;;;;1.35;0.85;;;;;;;10.98;26.45;102184.50;5084935;28;20074;-62
2021/04/15 12:10:22;;;;;;;1.00;0.90;;;;;;;10.94;26.49;102175.78;5084389;28;20052;-63
2021/04/15 12:12:52;;;;;;;3.03;0.90;;;;;;;10.76;26.76;102177.19;5084692;28;20032;-61
2021/04/15 12:15:25;;;;;;;1.30;0.68;;;;;;;10.82;26.95;102171.22;5084672;28;20036;-62
2021/04/15 12:17:59;;;;;;;1.42;0.90;;;;;;;10.78;26.52;102177.22;5084754;28;20035;-62